Time;durP1;ratioP1;P1;durP2;ratioP2;P2;SDS_P1;SDS_P2;PMS_P1;PMS_P2;Temp;Humidity;BMP_temperature;BMP_pressure;BME280_temperature;BME280_humidity;BME280_pressure;Samples;Min_cycle;Max_cycle;Signal;HPM_P1;HPM_P2
2023/07/19 00:00:48;;;;;;;;;;;22.60;65.30;;;;;;4154147;28;19944;-45
2023/07/19 00:03:29;;;;;;;;;;;22.60;65.40;;;;;;4155122;28;19982;-46
2023/07/19 00:06:10;;;;;;;;;;;22.60;65.40;;;;;;4155252;28;20002;-45
2023/07/19 00:08:51;;;;;;;;;;;22.60;65.50;;;;;;4155608;28;19951;-49
2023/07/19 00:11:31;;;;;;;;;;;22.60;65.50;;;;;;4171077;28;20055;-47
2023/07/19 00:14:12;;;;;;;;;;;22.60;65.60;;;;;;4172441;28;19932;-45
2023/07/19 00:16:54;;;;;;;;;;;22.60;65.70;;;;;;4172434;28;19935;-47
2023/07/19 00:19:35;;;;;;;;;;;22.60;65.80;;;;;;4170977;28;19932;-46
2023/07/19 00:22:15;;;;;;;;;;;22.60;66.70;;;;;;4172289;28;20379;-45
2023/07/19 00:24:56;;;;;;;;;;;22.60;65.90;;;;;;4172616;28;20070;-45
2023/07/19 00:27:37;;;;;;;;;;;22.60;65.90;;;;;;4171638;28;20055;-45
2023/07/19 00:30:18;;;;;;;;;;;22.60;66.00;;;;;;4153031;28;19936;-45
2023/07/19 00:33:00;;;;;;;;;;;22.60;66.00;;;;;;4154702;28;20014;-45
2023/07/19 00:35:42;;;;;;;;;;;22.60;66.10;;;;;;4155911;28;20018;-45
2023/07/19 00:38:23;;;;;;;;;;;22.60;66.20;;;;;;4156168;28;20399;-44
2023/07/19 00:41:04;;;;;;;;;;;22.60;66.50;;;;;;4155412;28;19936;-44
2023/07/19 00:43:45;;;;;;;;;;;22.60;66.30;;;;;;4155621;28;19940;-45
2023/07/19 00:46:26;;;;;;;;;;;22.60;66.30;;;;;;4155219;28;20411;-44
2023/07/19 00:49:10;;;;;;;;;;;22.60;66.30;;;;;;4163793;28;19989;-44
2023/07/19 00:51:51;;;;;;;;;;;22.50;66.20;;;;;;4170073;28;19932;-44
2023/07/19 00:54:31;;;;;;;;;;;22.50;66.20;;;;;;4171540;28;19932;-45
2023/07/19 00:57:13;;;;;;;;;;;22.50;66.20;;;;;;4170437;28;20045;-50
2023/07/19 00:59:54;;;;;;;;;;;22.60;66.30;;;;;;4154151;28;19974;-49
2023/07/19 01:02:35;;;;;;;;;;;22.50;66.30;;;;;;4154268;28;19936;-44
2023/07/19 01:05:17;;;;;;;;;;;22.50;66.40;;;;;;4155300;28;19932;-44
2023/07/19 01:07:58;;;;;;;;;;;22.50;66.40;;;;;;4169445;28;20405;-45
2023/07/19 01:10:39;;;;;;;;;;;22.50;66.50;;;;;;4171246;28;20506;-45
2023/07/19 01:13:21;;;;;;;;;;;22.50;66.60;;;;;;4170861;28;19936;-45
2023/07/19 01:16:01;;;;;;;;;;;22.50;66.70;;;;;;4167206;28;20390;-46
2023/07/19 01:18:42;;;;;;;;;;;22.50;66.80;;;;;;4153883;28;19932;-45
2023/07/19 01:21:25;;;;;;;;;;;22.50;66.80;;;;;;4153542;28;20297;-45
2023/07/19 01:24:11;;;;;;;;;;;22.50;67.00;;;;;;4153477;28;19932;-46
2023/07/19 01:26:52;;;;;;;;;;;22.50;67.10;;;;;;4169907;28;20291;-43
2023/07/19 01:29:33;;;;;;;;;;;22.50;67.30;;;;;;4171157;28;19931;-46
2023/07/19 01:32:14;;;;;;;;;;;22.40;67.30;;;;;;4186107;28;19931;-44
2023/07/19 01:34:55;;;;;;;;;;;22.50;68.30;;;;;;4186197;28;19935;-45
2023/07/19 01:37:36;;;;;;;;;;;22.50;67.60;;;;;;4169041;28;19932;-45
2023/07/19 01:40:18;;;;;;;;;;;22.40;67.70;;;;;;4161920;28;19932;-45
2023/07/19 01:42:58;;;;;;;;;;;22.50;67.80;;;;;;4153284;28;20623;-44
2023/07/19 01:45:39;;;;;;;;;;;22.50;67.90;;;;;;4155047;28;20000;-44
2023/07/19 01:48:20;;;;;;;;;;;22.40;67.90;;;;;;4170970;28;19936;-47
2023/07/19 01:51:02;;;;;;;;;;;22.40;68.00;;;;;;4169847;28;19936;-44
2023/07/19 01:53:43;;;;;;;;;;;22.40;69.00;;;;;;4168907;28;19935;-44
2023/07/19 01:56:25;;;;;;;;;;;22.40;68.10;;;;;;4166898;28;20453;-46
2023/07/19 01:59:06;;;;;;;;;;;22.40;68.30;;;;;;4181720;28;19978;-45
2023/07/19 02:01:46;;;;;;;;;;;22.40;68.20;;;;;;4186666;28;20399;-44
2023/07/19 02:04:27;;;;;;;;;;;22.40;68.30;;;;;;4188953;28;20319;-45
2023/07/19 02:07:08;;;;;;;;;;;22.40;68.30;;;;;;4156398;28;19967;-45
2023/07/19 02:09:49;;;;;;;;;;;22.40;68.30;;;;;;4154847;28;20026;-47
2023/07/19 02:12:31;;;;;;;;;;;22.40;68.40;;;;;;4157389;28;19936;-45
2023/07/19 02:15:12;;;;;;;;;;;22.40;68.40;;;;;;4158800;28;19932;-46
2023/07/19 02:17:53;;;;;;;;;;;22.40;69.30;;;;;;4174306;28;19935;-44
2023/07/19 02:20:34;;;;;;;;;;;22.30;68.40;;;;;;4172261;28;20029;-47
2023/07/19 02:23:18;;;;;;;;;;;22.30;68.40;;;;;;4173892;28;20718;-46
2023/07/19 02:26:00;;;;;;;;;;;22.30;68.60;;;;;;4172865;28;19974;-44
2023/07/19 02:28:43;;;;;;;;;;;22.30;68.50;;;;;;4171883;28;19931;-44
2023/07/19 02:31:23;;;;;;;;;;;22.30;68.60;;;;;;4174537;28;19978;-45
2023/07/19 02:34:05;;;;;;;;;;;22.30;68.60;;;;;;4173589;28;19931;-48
2023/07/19 02:36:46;;;;;;;;;;;22.40;68.70;;;;;;4172500;28;20067;-45
2023/07/19 02:39:27;;;;;;;;;;;22.40;68.80;;;;;;4169379;28;20393;-48
2023/07/19 02:42:08;;;;;;;;;;;22.30;68.70;;;;;;4159698;28;19935;-45
2023/07/19 02:44:50;;;;;;;;;;;22.40;68.90;;;;;;4171921;28;20303;-57
2023/07/19 02:47:32;;;;;;;;;;;22.30;68.80;;;;;;4195489;28;20031;-48
2023/07/19 02:50:13;;;;;;;;;;;22.40;68.90;;;;;;4172850;28;19935;-43
2023/07/19 02:52:53;;;;;;;;;;;22.30;68.90;;;;;;4171381;28;20006;-44
2023/07/19 02:55:34;;;;;;;;;;;22.30;69.00;;;;;;4178233;28;19931;-48
2023/07/19 02:58:15;;;;;;;;;;;22.30;69.00;;;;;;4169386;28;20022;-47
2023/07/19 03:00:57;;;;;;;;;;;22.30;69.00;;;;;;4171847;28;20009;-44
2023/07/19 03:03:39;;;;;;;;;;;22.30;69.00;;;;;;4146506;28;19936;-45
2023/07/19 03:06:20;;;;;;;;;;;22.30;70.00;;;;;;4172563;28;19936;-44
2023/07/19 03:09:01;;;;;;;;;;;22.30;69.10;;;;;;4173431;28;19935;-45
2023/07/19 03:11:42;;;;;;;;;;;22.30;69.10;;;;;;4171727;28;19974;-45
2023/07/19 03:14:23;;;;;;;;;;;22.30;70.00;;;;;;4170935;28;19993;-47
2023/07/19 03:17:06;;;;;;;;;;;22.30;69.20;;;;;;4172416;28;20292;-46
2023/07/19 03:19:47;;;;;;;;;;;22.30;69.20;;;;;;4171981;28;19998;-44
2023/07/19 03:22:27;;;;;;;;;;;22.30;70.10;;;;;;4172861;28;20375;-45
2023/07/19 03:25:09;;;;;;;;;;;22.30;69.20;;;;;;4156979;28;20070;-45
2023/07/19 03:27:50;;;;;;;;;;;22.30;69.20;;;;;;4155295;28;19996;-47
2023/07/19 03:30:32;;;;;;;;;;;22.30;70.10;;;;;;4155128;28;19936;-46
2023/07/19 03:33:14;;;;;;;;;;;22.30;69.30;;;;;;4157159;28;19932;-46
2023/07/19 03:35:55;;;;;;;;;;;22.30;69.30;;;;;;4171282;28;19936;-46
2023/07/19 03:38:36;;;;;;;;;;;22.30;69.30;;;;;;4183581;28;19932;-48
2023/07/19 03:41:17;;;;;;;;;;;22.30;69.30;;;;;;4171634;28;20461;-44
2023/07/19 03:43:58;;;;;;;;;;;22.20;69.30;;;;;;4171852;28;20268;-45
2023/07/19 03:46:39;;;;;;;;;;;22.20;69.40;;;;;;4159557;28;19936;-45
2023/07/19 03:49:21;;;;;;;;;;;22.30;69.50;;;;;;4166936;28;20291;-45
2023/07/19 03:52:02;;;;;;;;;;;22.20;69.50;;;;;;4156154;28;19932;-44
2023/07/19 03:54:43;;;;;;;;;;;22.20;69.60;;;;;;4182174;28;20078;-45
2023/07/19 03:57:25;;;;;;;;;;;22.20;69.70;;;;;;4154005;28;20078;-45
2023/07/19 04:00:08;;;;;;;;;;;22.20;69.80;;;;;;4153390;28;19932;-44
2023/07/19 04:02:58;;;;;;;;;;;22.20;69.80;;;;;;4136536;28;20661;-43
2023/07/19 04:05:40;;;;;;;;;;;22.20;69.90;;;;;;4143275;28;19970;-46
2023/07/19 04:08:22;;;;;;;;;;;22.20;69.90;;;;;;4168674;28;20063;-44
2023/07/19 04:11:03;;;;;;;;;;;22.20;70.00;;;;;;4171012;28;19932;-48
2023/07/19 04:13:44;;;;;;;;;;;22.20;70.00;;;;;;4176920;28;19935;-45
2023/07/19 04:16:26;;;;;;;;;;;22.20;70.10;;;;;;4175316;28;20096;-44
2023/07/19 04:19:07;;;;;;;;;;;22.20;70.10;;;;;;4186067;28;19935;-44
2023/07/19 04:21:49;;;;;;;;;;;22.20;70.10;;;;;;4159488;28;20441;-45
2023/07/19 04:24:31;;;;;;;;;;;22.20;70.20;;;;;;4166194;28;19932;-49
2023/07/19 04:27:12;;;;;;;;;;;22.20;70.10;;;;;;4168452;28;19936;-44
2023/07/19 04:29:53;;;;;;;;;;;22.20;70.10;;;;;;4145992;28;19937;-48
2023/07/19 04:32:35;;;;;;;;;;;22.20;70.10;;;;;;4149254;28;20487;-45
2023/07/19 04:35:18;;;;;;;;;;;22.20;70.20;;;;;;4151802;28;24173;-48
2023/07/19 04:38:00;;;;;;;;;;;22.20;70.10;;;;;;4177991;28;19931;-44
2023/07/19 04:40:42;;;;;;;;;;;22.20;70.20;;;;;;4171854;28;20372;-44
2023/07/19 04:43:25;;;;;;;;;;;22.20;70.20;;;;;;4174626;28;20017;-44
2023/07/19 04:46:07;;;;;;;;;;;22.10;70.20;;;;;;4187196;28;19931;-44
2023/07/19 04:48:48;;;;;;;;;;;22.20;70.20;;;;;;4174254;28;19932;-44
2023/07/19 04:51:30;;;;;;;;;;;22.10;70.10;;;;;;4170322;28;19931;-43
2023/07/19 04:54:13;;;;;;;;;;;22.20;70.20;;;;;;4182322;28;20303;-45
2023/07/19 04:56:54;;;;;;;;;;;22.20;70.20;;;;;;4173905;28;19982;-45
2023/07/19 04:59:35;;;;;;;;;;;22.20;70.20;;;;;;4154769;28;20095;-47
2023/07/19 05:02:16;;;;;;;;;;;22.10;70.20;;;;;;4168063;28;19936;-44
2023/07/19 05:04:57;;;;;;;;;;;22.20;70.60;;;;;;4151734;28;19941;-46
2023/07/19 05:07:38;;;;;;;;;;;22.20;70.70;;;;;;4147759;28;20413;-43
2023/07/19 05:10:21;;;;;;;;;;;22.20;70.80;;;;;;4160794;28;19936;-43
2023/07/19 05:13:02;;;;;;;;;;;22.20;71.60;;;;;;4169980;28;19932;-47
2023/07/19 05:15:43;;;;;;;;;;;22.20;70.60;;;;;;4169215;28;19946;-43
2023/07/19 05:18:27;;;;;;;;;;;22.20;70.70;;;;;;4153951;28;20059;-46
2023/07/19 05:21:08;;;;;;;;;;;22.20;70.80;;;;;;4153578;28;19932;-44
2023/07/19 05:23:49;;;;;;;;;;;22.10;70.70;;;;;;4141862;28;20327;-48
2023/07/19 05:26:32;;;;;;;;;;;22.10;70.80;;;;;;4163749;28;19935;-44
2023/07/19 05:29:12;;;;;;;;;;;22.10;70.80;;;;;;4154528;28;19936;-45
2023/07/19 05:31:53;;;;;;;;;;;22.10;71.80;;;;;;4152926;28;20010;-44
2023/07/19 05:34:34;;;;;;;;;;;22.10;71.00;;;;;;4157615;28;20071;-44
2023/07/19 05:37:15;;;;;;;;;;;22.10;71.00;;;;;;4165468;28;19931;-45
2023/07/19 05:39:56;;;;;;;;;;;22.10;71.00;;;;;;4165900;28;20285;-45
2023/07/19 05:42:39;;;;;;;;;;;22.10;71.00;;;;;;4171013;28;20383;-44
2023/07/19 05:45:20;;;;;;;;;;;22.10;71.10;;;;;;4164780;28;19994;-45
2023/07/19 05:48:01;;;;;;;;;;;22.10;71.10;;;;;;4151215;28;20014;-48
2023/07/19 05:50:42;;;;;;;;;;;22.10;71.10;;;;;;4154888;28;19932;-44
2023/07/19 05:53:23;;;;;;;;;;;22.10;71.20;;;;;;4153128;28;19935;-47
2023/07/19 05:56:04;;;;;;;;;;;22.10;71.60;;;;;;4178154;28;20060;-47
2023/07/19 05:58:46;;;;;;;;;;;22.10;73.70;;;;;;4169631;28;19955;-44
2023/07/19 06:01:27;;;;;;;;;;;22.10;76.00;;;;;;4170980;28;19932;-44
2023/07/19 06:04:11;;;;;;;;;;;22.20;77.10;;;;;;4157639;28;19936;-45
2023/07/19 06:06:52;;;;;;;;;;;22.20;77.70;;;;;;4168403;28;19931;-49
2023/07/19 06:09:33;;;;;;;;;;;22.10;78.00;;;;;;4171022;28;20035;-48
2023/07/19 06:12:14;;;;;;;;;;;22.20;78.30;;;;;;4171301;28;19932;-45
2023/07/19 06:14:56;;;;;;;;;;;22.10;77.80;;;;;;4180153;28;19934;-47
2023/07/19 06:17:37;;;;;;;;;;;22.10;77.10;;;;;;4149105;28;19933;-45
2023/07/19 06:20:18;;;;;;;;;;;22.20;76.30;;;;;;4154331;28;19936;-45
2023/07/19 06:22:59;;;;;;;;;;;22.10;75.60;;;;;;4164742;28;19935;-45
2023/07/19 06:25:40;;;;;;;;;;;22.10;75.10;;;;;;4176885;28;19993;-44
2023/07/19 06:28:21;;;;;;;;;;;22.10;74.80;;;;;;4169583;28;20299;-44
2023/07/19 06:31:03;;;;;;;;;;;22.10;75.30;;;;;;4162506;28;19931;-46
2023/07/19 06:33:44;;;;;;;;;;;22.10;74.20;;;;;;4169142;28;19932;-49
2023/07/19 06:36:26;;;;;;;;;;;22.10;73.90;;;;;;4169209;28;19943;-48
2023/07/19 06:39:07;;;;;;;;;;;22.10;73.70;;;;;;4170237;28;20002;-48
2023/07/19 06:41:47;;;;;;;;;;;22.10;73.50;;;;;;4170489;28;19936;-47
2023/07/19 06:44:30;;;;;;;;;;;22.10;73.40;;;;;;4153158;28;20303;-46
2023/07/19 06:47:13;;;;;;;;;;;22.00;74.00;;;;;;4154365;28;19932;-47
2023/07/19 06:49:53;;;;;;;;;;;22.10;73.00;;;;;;4157297;28;19944;-44
2023/07/19 06:52:34;;;;;;;;;;;22.10;72.90;;;;;;4161377;28;20010;-51
2023/07/19 06:55:15;;;;;;;;;;;22.00;72.70;;;;;;4173274;28;19932;-44
2023/07/19 06:57:56;;;;;;;;;;;22.00;72.60;;;;;;4169151;28;19967;-45
2023/07/19 07:00:37;;;;;;;;;;;22.00;72.50;;;;;;4172669;28;20679;-45
2023/07/19 07:03:19;;;;;;;;;;;22.00;72.50;;;;;;4171929;28;19931;-46
2023/07/19 07:06:00;;;;;;;;;;;22.00;72.30;;;;;;4156723;28;19937;-46
2023/07/19 07:08:44;;;;;;;;;;;22.00;72.30;;;;;;4156931;28;19936;-46
2023/07/19 07:11:25;;;;;;;;;;;22.00;72.20;;;;;;4156959;28;19935;-47
2023/07/19 07:14:05;;;;;;;;;;;22.00;72.10;;;;;;4172179;28;19932;-48
2023/07/19 07:16:46;;;;;;;;;;;22.00;72.00;;;;;;4155808;28;19944;-48
2023/07/19 07:19:29;;;;;;;;;;;22.00;72.00;;;;;;4156176;28;19936;-44
2023/07/19 07:22:10;;;;;;;;;;;22.00;71.90;;;;;;4162518;28;20390;-44
2023/07/19 07:24:51;;;;;;;;;;;22.00;71.80;;;;;;4158240;28;19935;-45
2023/07/19 07:27:31;;;;;;;;;;;22.00;71.70;;;;;;4183720;28;19978;-46
2023/07/19 07:30:12;;;;;;;;;;;22.00;71.70;;;;;;4163074;28;19931;-44
2023/07/19 07:32:53;;;;;;;;;;;22.00;71.60;;;;;;4169832;28;20022;-45
2023/07/19 07:35:35;;;;;;;;;;;22.00;71.60;;;;;;4155806;28;19963;-46
2023/07/19 07:38:16;;;;;;;;;;;22.00;71.50;;;;;;4155752;28;19933;-45
2023/07/19 07:41:00;;;;;;;;;;;22.00;71.50;;;;;;4141237;28;20004;-45
2023/07/19 07:43:41;;;;;;;;;;;22.00;71.50;;;;;;4160205;28;19978;-47
2023/07/19 07:46:22;;;;;;;;;;;22.00;71.50;;;;;;4146698;28;19936;-44
2023/07/19 07:49:04;;;;;;;;;;;22.00;71.50;;;;;;4163531;28;19991;-45
2023/07/19 07:51:47;;;;;;;;;;;22.00;72.30;;;;;;4149988;28;20063;-45
2023/07/19 07:54:28;;;;;;;;;;;22.00;71.30;;;;;;4158367;28;19936;-46
2023/07/19 07:57:09;;;;;;;;;;;22.00;71.20;;;;;;4169038;28;19937;-46
2023/07/19 07:59:50;;;;;;;;;;;22.00;71.10;;;;;;4165032;28;19932;-45
2023/07/19 08:02:31;;;;;;;;;;;22.00;71.10;;;;;;4159308;28;19931;-46
2023/07/19 08:05:16;;;;;;;;;;;22.00;71.10;;;;;;4156024;28;19944;-46
2023/07/19 08:07:58;;;;;;;;;;;22.00;71.10;;;;;;4152498;28;20296;-45
2023/07/19 08:10:39;;;;;;;;;;;22.00;71.10;;;;;;4142472;28;19936;-49
2023/07/19 08:13:20;;;;;;;;;;;22.00;71.00;;;;;;4154259;28;19959;-48
2023/07/19 08:16:01;;;;;;;;;;;22.00;70.90;;;;;;4153733;28;19932;-49
2023/07/19 08:18:43;;;;;;;;;;;22.10;70.80;;;;;;4154134;28;19936;-46
2023/07/19 08:21:25;;;;;;;;;;;22.10;70.70;;;;;;4155223;28;19936;-45
2023/07/19 08:24:17;;;;;;;;;;;22.10;70.50;;;;;;4134466;28;20005;-46
2023/07/19 08:26:58;;;;;;;;;;;22.10;70.30;;;;;;4155453;28;20018;-46
2023/07/19 08:29:39;;;;;;;;;;;22.10;70.10;;;;;;4154751;28;20449;-47
2023/07/19 08:32:21;;;;;;;;;;;22.10;71.00;;;;;;4169118;28;20022;-47
2023/07/19 08:35:05;;;;;;;;;;;22.10;70.00;;;;;;4161392;28;19931;-46
2023/07/19 08:37:47;;;;;;;;;;;22.10;69.90;;;;;;4171394;28;19936;-46
2023/07/19 08:40:31;;;;;;;;;;;22.20;69.90;;;;;;4172567;28;20017;-44
2023/07/19 08:43:13;;;;;;;;;;;22.20;69.90;;;;;;4153612;28;19936;-44
2023/07/19 08:45:54;;;;;;;;;;;22.20;69.90;;;;;;4138113;28;19936;-45
2023/07/19 08:48:36;;;;;;;;;;;22.20;69.80;;;;;;4179460;28;20471;-47
2023/07/19 08:51:17;;;;;;;;;;;22.20;69.70;;;;;;4153325;28;19937;-46
2023/07/19 08:53:59;;;;;;;;;;;22.20;70.50;;;;;;4121324;28;19936;-47
2023/07/19 08:56:42;;;;;;;;;;;22.30;69.70;;;;;;4154927;28;19932;-47
2023/07/19 08:59:23;;;;;;;;;;;22.30;69.60;;;;;;4155895;28;19932;-45
2023/07/19 09:02:04;;;;;;;;;;;22.40;69.50;;;;;;4170041;28;19931;-45
2023/07/19 09:05:00;;;;;;;;;;;22.40;69.20;;;;;;4171389;28;20608;-46
2023/07/19 09:07:42;;;;;;;;;;;22.40;68.90;;;;;;4169904;28;20385;-46
2023/07/19 09:10:25;;;;;;;;;;;22.50;68.80;;;;;;4152567;28;19986;-46
2023/07/19 09:13:08;;;;;;;;;;;22.50;68.50;;;;;;4141188;28;19936;-47
2023/07/19 09:15:49;;;;;;;;;;;22.50;68.20;;;;;;4157150;28;19981;-49
2023/07/19 09:18:33;;;;;;;;;;;22.60;68.30;;;;;;4172647;28;19935;-47
2023/07/19 09:21:14;;;;;;;;;;;22.60;68.30;;;;;;4171205;28;19931;-46
2023/07/19 09:23:55;;;;;;;;;;;22.60;68.30;;;;;;4171031;28;19948;-46
2023/07/19 09:26:49;;;;;;;;;;;22.70;68.10;;;;;;4171146;28;19935;-46
2023/07/19 09:29:31;;;;;;;;;;;22.70;68.00;;;;;;4152539;28;19936;-50
2023/07/19 09:32:16;;;;;;;;;;;22.70;68.10;;;;;;4137816;28;20269;-47
2023/07/19 09:34:59;;;;;;;;;;;22.70;69.00;;;;;;4151170;28;19974;-45
2023/07/19 09:37:40;;;;;;;;;;;22.70;69.50;;;;;;4170962;28;20107;-47
2023/07/19 09:40:21;;;;;;;;;;;22.70;69.80;;;;;;4166961;28;19936;-46
2023/07/19 09:43:02;;;;;;;;;;;22.70;69.80;;;;;;4187462;28;20075;-46
2023/07/19 09:45:46;;;;;;;;;;;22.70;69.80;;;;;;4186867;28;19940;-47
2023/07/19 09:48:28;;;;;;;;;;;22.70;69.90;;;;;;4158430;28;20072;-46
2023/07/19 09:51:10;;;;;;;;;;;22.70;69.90;;;;;;4152319;28;19936;-46
2023/07/19 09:53:51;;;;;;;;;;;22.80;70.30;;;;;;4153484;28;19936;-49
2023/07/19 09:56:32;;;;;;;;;;;22.70;70.50;;;;;;4157624;28;20018;-49
2023/07/19 09:59:15;;;;;;;;;;;22.80;70.70;;;;;;4186516;28;19936;-47
2023/07/19 10:01:58;;;;;;;;;;;22.80;70.90;;;;;;4186593;28;20371;-45
2023/07/19 10:04:39;;;;;;;;;;;22.80;70.50;;;;;;4176331;28;19951;-45
2023/07/19 10:07:20;;;;;;;;;;;22.80;70.40;;;;;;4166104;28;19935;-45
2023/07/19 10:10:02;;;;;;;;;;;22.80;70.50;;;;;;4190487;28;20000;-47
2023/07/19 10:12:46;;;;;;;;;;;22.80;70.50;;;;;;4187168;28;19932;-46
2023/07/19 10:15:27;;;;;;;;;;;22.80;70.50;;;;;;4181185;28;20074;-46
2023/07/19 10:18:12;;;;;;;;;;;22.80;70.40;;;;;;4170986;28;19936;-46
2023/07/19 10:21:00;;;;;;;;;;;22.80;70.40;;;;;;4170655;28;20403;-48
2023/07/19 10:23:46;;;;;;;;;;;22.80;71.50;;;;;;4163510;28;19952;-47
2023/07/19 10:26:29;;;;;;;;;;;22.80;70.60;;;;;;4172769;28;19993;-45
2023/07/19 10:29:17;;;;;;;;;;;22.80;70.50;;;;;;4189225;28;19931;-48
2023/07/19 10:32:00;;;;;;;;;;;22.80;70.10;;;;;;4190480;28;19931;-50
2023/07/19 10:34:45;;;;;;;;;;;22.80;70.50;;;;;;4162664;28;19932;-48
2023/07/19 10:37:26;;;;;;;;;;;22.80;70.80;;;;;;4155364;28;19951;-49
2023/07/19 10:40:08;;;;;;;;;;;22.80;71.00;;;;;;4156964;28;19943;-49
2023/07/19 10:42:48;;;;;;;;;;;22.80;72.00;;;;;;4147311;28;19932;-50
2023/07/19 10:45:29;;;;;;;;;;;22.80;71.00;;;;;;4156455;28;19933;-46
2023/07/19 10:48:11;;;;;;;;;;;22.80;70.30;;;;;;4173261;28;20082;-48
2023/07/19 10:50:56;;;;;;;;;;;22.80;70.20;;;;;;4172977;28;19936;-48
2023/07/19 10:53:42;;;;;;;;;;;22.70;70.00;;;;;;4172009;28;20268;-46
2023/07/19 10:56:24;;;;;;;;;;;22.80;71.00;;;;;;4164868;28;19932;-47
2023/07/19 10:59:05;;;;;;;;;;;22.80;70.00;;;;;;4155157;28;19933;-48
2023/07/19 11:01:48;;;;;;;;;;;22.80;70.00;;;;;;4155954;28;20067;-46
2023/07/19 11:04:29;;;;;;;;;;;22.80;69.70;;;;;;4171671;28;20401;-50
2023/07/19 11:07:12;;;;;;;;;;;22.80;69.60;;;;;;4172981;28;19935;-50
2023/07/19 11:09:52;;;;;;;;;;;22.80;69.60;;;;;;4172822;28;20058;-47
2023/07/19 11:12:34;;;;;;;;;;;22.80;69.30;;;;;;4170457;28;20405;-49
2023/07/19 11:15:16;;;;;;;;;;;22.80;69.30;;;;;;4171373;28;19936;-49
2023/07/19 11:17:58;;;;;;;;;;;22.80;69.40;;;;;;4171383;28;20399;-46
2023/07/19 11:20:39;;;;;;;;;;;22.80;69.10;;;;;;4169235;28;19935;-45
2023/07/19 11:23:21;;;;;;;;;;;22.80;69.10;;;;;;4173082;28;20402;-48
2023/07/19 11:26:05;;;;;;;;;;;22.80;69.00;;;;;;4161528;28;19936;-45
2023/07/19 11:28:47;;;;;;;;;;;22.80;68.90;;;;;;4173363;28;20276;-45
2023/07/19 11:31:29;;;;;;;;;;;22.80;69.00;;;;;;4171996;28;19932;-46
2023/07/19 11:34:11;;;;;;;;;;;22.80;68.80;;;;;;4172426;28;19932;-47
2023/07/19 11:36:52;;;;;;;;;;;22.80;68.80;;;;;;4163159;28;19933;-46
2023/07/19 11:39:34;;;;;;;;;;;22.80;68.70;;;;;;4156269;28;20063;-45
2023/07/19 11:42:15;;;;;;;;;;;22.80;68.50;;;;;;4142609;28;19936;-47
2023/07/19 11:44:56;;;;;;;;;;;22.80;68.40;;;;;;4139910;28;19983;-47
2023/07/19 11:47:37;;;;;;;;;;;22.90;68.20;;;;;;4171908;28;20045;-47
2023/07/19 11:50:20;;;;;;;;;;;22.90;68.10;;;;;;4173088;28;20009;-46
2023/07/19 11:53:03;;;;;;;;;;;22.90;68.00;;;;;;4172367;28;20390;-45
2023/07/19 11:55:46;;;;;;;;;;;22.90;68.00;;;;;;4172191;28;19953;-49
2023/07/19 11:58:26;;;;;;;;;;;22.90;67.50;;;;;;4173361;28;19931;-46
2023/07/19 12:01:23;;;;;;;;;;;23.00;67.60;;;;;;4160457;28;20414;-45
2023/07/19 12:04:04;;;;;;;;;;;22.90;68.10;;;;;;4171119;28;19954;-45
2023/07/19 12:06:46;;;;;;;;;;;23.00;67.00;;;;;;4182417;28;20378;-48
2023/07/19 12:09:26;;;;;;;;;;;23.00;67.20;;;;;;4188789;28;20410;-48
2023/07/19 12:12:09;;;;;;;;;;;23.00;67.20;;;;;;4188580;28;20065;-45
2023/07/19 12:14:50;;;;;;;;;;;23.00;67.20;;;;;;4188928;28;19955;-45
2023/07/19 12:17:32;;;;;;;;;;;23.10;67.00;;;;;;4178364;28;19951;-45
2023/07/19 12:20:13;;;;;;;;;;;23.10;67.70;;;;;;4186261;28;20133;-46
2023/07/19 12:22:53;;;;;;;;;;;23.10;66.80;;;;;;4169697;28;20295;-48
2023/07/19 12:25:34;;;;;;;;;;;23.10;66.40;;;;;;4175092;28;19974;-47
2023/07/19 12:28:22;;;;;;;;;;;23.10;66.40;;;;;;4174771;28;20481;-46
2023/07/19 12:31:03;;;;;;;;;;;23.20;66.50;;;;;;4188381;28;19931;-48
2023/07/19 12:33:44;;;;;;;;;;;23.20;67.00;;;;;;4187112;28;19955;-50
2023/07/19 12:36:25;;;;;;;;;;;23.30;65.80;;;;;;4188521;28;19987;-50
2023/07/19 12:39:06;;;;;;;;;;;23.30;65.80;;;;;;4189013;28;19932;-54
2023/07/19 12:41:47;;;;;;;;;;;23.30;65.60;;;;;;4186680;28;19939;-50
2023/07/19 12:44:30;;;;;;;;;;;23.30;65.60;;;;;;4173514;28;19977;-50
2023/07/19 12:47:10;;;;;;;;;;;23.30;65.60;;;;;;4170667;28;19978;-46
2023/07/19 12:49:51;;;;;;;;;;;23.30;64.60;;;;;;4170999;28;19932;-49
2023/07/19 12:52:32;;;;;;;;;;;23.30;64.80;;;;;;4170668;28;19931;-47
2023/07/19 12:55:25;;;;;;;;;;;23.30;64.70;;;;;;4170095;28;19947;-47
2023/07/19 12:58:06;;;;;;;;;;;23.30;64.50;;;;;;4166190;28;20067;-45
2023/07/19 13:00:48;;;;;;;;;;;23.30;64.30;;;;;;4168457;28;19940;-46
2023/07/19 13:03:29;;;;;;;;;;;23.30;64.00;;;;;;4176788;28;19931;-50
2023/07/19 13:06:10;;;;;;;;;;;23.30;63.80;;;;;;4187308;28;19936;-50
2023/07/19 13:08:51;;;;;;;;;;;23.30;63.90;;;;;;4162066;28;19935;-47
2023/07/19 13:11:32;;;;;;;;;;;23.30;64.20;;;;;;4186265;28;20358;-46
2023/07/19 13:14:13;;;;;;;;;;;23.30;64.00;;;;;;4167560;28;20548;-47
2023/07/19 13:16:56;;;;;;;;;;;23.30;63.90;;;;;;4187912;28;20389;-47
2023/07/19 13:19:59;;;;;;;;;;;23.30;63.70;;;;;;4186970;28;20283;-48
2023/07/19 13:22:40;;;;;;;;;;;23.40;63.90;;;;;;4186725;28;19932;-47
2023/07/19 13:25:21;;;;;;;;;;;23.40;63.60;;;;;;4186397;28;19935;-46
2023/07/19 13:28:03;;;;;;;;;;;23.40;63.00;;;;;;4186752;28;20621;-48
2023/07/19 13:30:43;;;;;;;;;;;23.40;63.00;;;;;;4175550;28;20006;-50
2023/07/19 13:33:26;;;;;;;;;;;23.40;63.30;;;;;;4186877;28;19931;-45
2023/07/19 13:36:07;;;;;;;;;;;23.40;62.70;;;;;;4186910;28;19932;-47
2023/07/19 13:38:51;;;;;;;;;;;23.40;62.90;;;;;;4187696;28;19936;-50
2023/07/19 13:41:32;;;;;;;;;;;23.40;62.90;;;;;;4187353;28;20398;-48
2023/07/19 13:44:13;;;;;;;;;;;23.40;63.10;;;;;;4182666;28;20005;-47
2023/07/19 13:46:54;;;;;;;;;;;23.40;62.70;;;;;;4154725;28;19932;-48
2023/07/19 13:49:37;;;;;;;;;;;23.40;63.00;;;;;;4180491;28;20279;-48
2023/07/19 13:52:20;;;;;;;;;;;23.40;62.60;;;;;;4187937;28;20391;-50
2023/07/19 13:55:01;;;;;;;;;;;23.40;63.30;;;;;;4178438;28;19932;-47
2023/07/19 13:57:42;;;;;;;;;;;23.40;62.40;;;;;;4188162;28;19933;-47
2023/07/19 14:00:24;;;;;;;;;;;23.50;62.50;;;;;;4175567;28;19997;-47
2023/07/19 14:03:11;;;;;;;;;;;23.50;62.30;;;;;;4195783;28;19935;-46
2023/07/19 14:05:53;;;;;;;;;;;23.40;61.90;;;;;;4190810;28;20012;-46
2023/07/19 14:08:34;;;;;;;;;;;23.50;61.90;;;;;;4190594;28;20058;-49
2023/07/19 14:11:18;;;;;;;;;;;23.40;61.60;;;;;;4161595;28;19933;-46
2023/07/19 14:13:59;;;;;;;;;;;23.40;62.00;;;;;;4169403;28;19935;-46
2023/07/19 14:16:40;;;;;;;;;;;23.50;61.90;;;;;;4156678;28;19932;-46
2023/07/19 14:19:21;;;;;;;;;;;23.40;62.10;;;;;;4170998;28;19932;-46
2023/07/19 14:22:04;;;;;;;;;;;23.40;61.80;;;;;;4173067;28;20017;-48
2023/07/19 14:24:45;;;;;;;;;;;23.50;61.60;;;;;;4190312;28;20024;-47
2023/07/19 14:27:26;;;;;;;;;;;23.40;61.50;;;;;;4189837;28;20043;-51
2023/07/19 14:30:09;;;;;;;;;;;23.40;62.00;;;;;;4180735;28;20073;-46
2023/07/19 14:32:50;;;;;;;;;;;23.40;62.00;;;;;;4167856;28;19932;-46
2023/07/19 14:35:32;;;;;;;;;;;23.40;61.40;;;;;;4157903;28;20710;-47
2023/07/19 14:38:16;;;;;;;;;;;23.40;61.80;;;;;;4169865;28;19936;-47
2023/07/19 14:40:57;;;;;;;;;;;23.40;62.20;;;;;;4172874;28;19935;-46
2023/07/19 14:43:39;;;;;;;;;;;23.40;61.30;;;;;;4172465;28;20295;-48
2023/07/19 14:46:22;;;;;;;;;;;23.40;61.60;;;;;;4172986;28;19978;-46
2023/07/19 14:49:04;;;;;;;;;;;23.40;61.10;;;;;;4172637;28;19932;-50
2023/07/19 14:51:46;;;;;;;;;;;23.40;62.10;;;;;;4157394;28;19940;-48
2023/07/19 14:54:28;;;;;;;;;;;23.40;60.80;;;;;;4155183;28;19932;-48
2023/07/19 14:57:09;;;;;;;;;;;23.40;61.00;;;;;;4153491;28;19962;-47
2023/07/19 14:59:50;;;;;;;;;;;23.40;60.80;;;;;;4166550;28;19935;-46
2023/07/19 15:02:53;;;;;;;;;;;23.40;60.20;;;;;;4188911;28;19932;-47
2023/07/19 15:05:37;;;;;;;;;;;23.40;60.50;;;;;;4190207;28;19950;-49
2023/07/19 15:08:18;;;;;;;;;;;23.50;60.80;;;;;;4189748;28;20066;-46
2023/07/19 15:11:01;;;;;;;;;;;23.40;60.30;;;;;;4186112;28;19946;-45
2023/07/19 15:13:42;;;;;;;;;;;23.50;60.30;;;;;;4189761;28;20085;-48
2023/07/19 15:16:23;;;;;;;;;;;23.50;60.10;;;;;;4188996;28;20070;-46
2023/07/19 15:19:05;;;;;;;;;;;23.50;59.90;;;;;;4176149;28;19951;-46
2023/07/19 15:21:46;;;;;;;;;;;23.50;60.40;;;;;;4157009;28;20074;-46
2023/07/19 15:24:27;;;;;;;;;;;23.50;60.30;;;;;;4172778;28;19974;-46
2023/07/19 15:27:09;;;;;;;;;;;23.50;60.40;;;;;;4172639;28;20014;-46
2023/07/19 15:29:50;;;;;;;;;;;23.50;60.10;;;;;;4164689;28;19936;-46
2023/07/19 15:32:31;;;;;;;;;;;23.50;59.60;;;;;;4169037;28;19932;-47
2023/07/19 15:35:12;;;;;;;;;;;23.50;59.80;;;;;;4171958;28;20385;-49
2023/07/19 15:37:53;;;;;;;;;;;23.60;60.10;;;;;;4173724;28;20301;-46
2023/07/19 15:40:35;;;;;;;;;;;23.60;60.10;;;;;;4189026;28;20025;-50